sensor_id;sensor_type;location;lat;lon;timestamp;P1;durP1;ratioP1;P2;durP2;ratioP2
6259;SDS011;3163;51.516;4.000;2023-06-26T00:02:14;2.85;;;2.20;;
6259;SDS011;3163;51.516;4.000;2023-06-26T00:04:41;1.90;;;1.80;;
6259;SDS011;3163;51.516;4.000;2023-06-26T00:07:08;2.30;;;1.83;;
6259;SDS011;3163;51.516;4.000;2023-06-26T00:09:34;3.45;;;2.47;;
6259;SDS011;3163;51.516;4.000;2023-06-26T00:12:00;2.83;;;2.22;;
6259;SDS011;3163;51.516;4.000;2023-06-26T00:14:26;2.72;;;1.90;;
6259;SDS011;3163;51.516;4.000;2023-06-26T00:16:52;4.00;;;2.35;;
6259;SDS011;3163;51.516;4.000;2023-06-26T00:19:18;4.13;;;1.85;;
6259;SDS011;3163;51.516;4.000;2023-06-26T00:21:44;4.03;;;2.50;;
6259;SDS011;3163;51.516;4.000;2023-06-26T00:24:13;4.10;;;2.25;;
6259;SDS011;3163;51.516;4.000;2023-06-26T00:26:39;2.13;;;1.92;;
6259;SDS011;3163;51.516;4.000;2023-06-26T00:29:05;4.03;;;2.00;;
6259;SDS011;3163;51.516;4.000;2023-06-26T00:31:31;2.15;;;1.63;;
6259;SDS011;3163;51.516;4.000;2023-06-26T00:33:57;2.58;;;2.13;;
6259;SDS011;3163;51.516;4.000;2023-06-26T00:36:23;1.85;;;1.75;;
6259;SDS011;3163;51.516;4.000;2023-06-26T00:38:51;4.40;;;2.50;;
6259;SDS011;3163;51.516;4.000;2023-06-26T00:41:17;1.92;;;1.67;;
6259;SDS011;3163;51.516;4.000;2023-06-26T00:43:43;3.50;;;1.35;;
6259;SDS011;3163;51.516;4.000;2023-06-26T00:46:10;4.82;;;2.25;;
6259;SDS011;3163;51.516;4.000;2023-06-26T00:48:37;2.13;;;1.67;;
6259;SDS011;3163;51.516;4.000;2023-06-26T00:51:04;2.30;;;1.75;;
6259;SDS011;3163;51.516;4.000;2023-06-26T00:53:30;3.72;;;1.90;;
6259;SDS011;3163;51.516;4.000;2023-06-26T00:55:56;4.75;;;1.88;;
6259;SDS011;3163;51.516;4.000;2023-06-26T00:58:23;3.15;;;1.95;;
6259;SDS011;3163;51.516;4.000;2023-06-26T01:00:53;4.55;;;1.95;;
6259;SDS011;3163;51.516;4.000;2023-06-26T01:03:22;5.32;;;2.22;;
6259;SDS011;3163;51.516;4.000;2023-06-26T01:05:48;4.57;;;2.00;;
6259;SDS011;3163;51.516;4.000;2023-06-26T01:08:15;6.53;;;2.45;;
6259;SDS011;3163;51.516;4.000;2023-06-26T01:10:41;5.07;;;2.70;;
6259;SDS011;3163;51.516;4.000;2023-06-26T01:13:08;3.85;;;1.90;;
6259;SDS011;3163;51.516;4.000;2023-06-26T01:15:34;3.17;;;2.03;;
6259;SDS011;3163;51.516;4.000;2023-06-26T01:18:00;1.83;;;1.73;;
6259;SDS011;3163;51.516;4.000;2023-06-26T01:20:29;1.80;;;1.70;;
6259;SDS011;3163;51.516;4.000;2023-06-26T01:27:52;3.42;;;1.88;;
6259;SDS011;3163;51.516;4.000;2023-06-26T01:30:19;9.32;;;2.60;;
6259;SDS011;3163;51.516;4.000;2023-06-26T01:32:45;5.10;;;2.33;;
6259;SDS011;3163;51.516;4.000;2023-06-26T01:35:12;4.28;;;2.33;;
6259;SDS011;3163;51.516;4.000;2023-06-26T01:37:39;4.43;;;2.22;;
6259;SDS011;3163;51.516;4.000;2023-06-26T01:40:05;4.30;;;2.10;;
6259;SDS011;3163;51.516;4.000;2023-06-26T01:42:32;3.55;;;2.13;;
6259;SDS011;3163;51.516;4.000;2023-06-26T01:44:58;5.93;;;2.15;;
6259;SDS011;3163;51.516;4.000;2023-06-26T01:47:27;4.45;;;2.20;;
6259;SDS011;3163;51.516;4.000;2023-06-26T01:55:07;5.38;;;2.08;;
6259;SDS011;3163;51.516;4.000;2023-06-26T01:57:34;5.70;;;2.25;;
6259;SDS011;3163;51.516;4.000;2023-06-26T02:00:02;2.00;;;1.70;;
6259;SDS011;3163;51.516;4.000;2023-06-26T02:02:28;3.05;;;1.65;;
6259;SDS011;3163;51.516;4.000;2023-06-26T02:04:55;2.00;;;1.80;;
6259;SDS011;3163;51.516;4.000;2023-06-26T02:07:21;6.88;;;2.47;;
6259;SDS011;3163;51.516;4.000;2023-06-26T02:09:47;5.05;;;2.15;;
6259;SDS011;3163;51.516;4.000;2023-06-26T02:12:13;3.13;;;2.10;;
6259;SDS011;3163;51.516;4.000;2023-06-26T02:14:39;4.22;;;2.30;;
6259;SDS011;3163;51.516;4.000;2023-06-26T02:17:05;5.63;;;2.67;;
6259;SDS011;3163;51.516;4.000;2023-06-26T02:19:33;3.58;;;1.75;;
6259;SDS011;3163;51.516;4.000;2023-06-26T02:21:59;3.00;;;2.03;;
6259;SDS011;3163;51.516;4.000;2023-06-26T02:24:25;5.25;;;2.22;;
6259;SDS011;3163;51.516;4.000;2023-06-26T02:26:54;6.23;;;2.27;;
6259;SDS011;3163;51.516;4.000;2023-06-26T02:29:21;3.95;;;2.00;;
6259;SDS011;3163;51.516;4.000;2023-06-26T02:31:47;3.47;;;2.08;;
6259;SDS011;3163;51.516;4.000;2023-06-26T02:34:14;6.78;;;1.95;;
6259;SDS011;3163;51.516;4.000;2023-06-26T02:36:40;5.38;;;2.33;;
6259;SDS011;3163;51.516;4.000;2023-06-26T02:39:06;6.22;;;2.38;;
6259;SDS011;3163;51.516;4.000;2023-06-26T02:41:32;5.55;;;2.17;;
6259;SDS011;3163;51.516;4.000;2023-06-26T02:43:58;5.85;;;2.17;;
6259;SDS011;3163;51.516;4.000;2023-06-26T02:46:24;4.45;;;2.05;;
6259;SDS011;3163;51.516;4.000;2023-06-26T02:48:50;4.13;;;2.30;;
6259;SDS011;3163;51.516;4.000;2023-06-26T02:51:16;3.35;;;2.00;;
6259;SDS011;3163;51.516;4.000;2023-06-26T02:53:42;7.50;;;1.88;;
6259;SDS011;3163;51.516;4.000;2023-06-26T02:56:08;4.95;;;2.67;;
6259;SDS011;3163;51.516;4.000;2023-06-26T02:58:34;3.53;;;2.33;;
6259;SDS011;3163;51.516;4.000;2023-06-26T03:01:00;5.15;;;2.15;;
6259;SDS011;3163;51.516;4.000;2023-06-26T03:03:26;6.30;;;2.17;;
6259;SDS011;3163;51.516;4.000;2023-06-26T03:05:52;3.83;;;2.00;;
6259;SDS011;3163;51.516;4.000;2023-06-26T03:08:18;2.80;;;1.80;;
6259;SDS011;3163;51.516;4.000;2023-06-26T03:10:44;3.17;;;2.20;;
6259;SDS011;3163;51.516;4.000;2023-06-26T03:13:10;4.75;;;2.40;;
6259;SDS011;3163;51.516;4.000;2023-06-26T03:15:36;4.88;;;2.25;;
6259;SDS011;3163;51.516;4.000;2023-06-26T03:18:02;4.40;;;2.20;;
6259;SDS011;3163;51.516;4.000;2023-06-26T03:20:28;4.20;;;1.88;;
6259;SDS011;3163;51.516;4.000;2023-06-26T03:22:54;2.30;;;1.70;;
6259;SDS011;3163;51.516;4.000;2023-06-26T03:25:20;6.22;;;2.65;;
6259;SDS011;3163;51.516;4.000;2023-06-26T03:27:46;6.60;;;1.67;;
6259;SDS011;3163;51.516;4.000;2023-06-26T03:30:12;4.15;;;1.83;;
6259;SDS011;3163;51.516;4.000;2023-06-26T03:32:38;3.90;;;2.08;;
6259;SDS011;3163;51.516;4.000;2023-06-26T03:35:04;5.35;;;2.50;;
6259;SDS011;3163;51.516;4.000;2023-06-26T03:37:30;4.65;;;1.73;;
6259;SDS011;3163;51.516;4.000;2023-06-26T03:39:56;5.57;;;2.00;;
6259;SDS011;3163;51.516;4.000;2023-06-26T03:42:22;5.22;;;2.08;;
6259;SDS011;3163;51.516;4.000;2023-06-26T03:44:48;4.70;;;2.13;;
6259;SDS011;3163;51.516;4.000;2023-06-26T03:47:14;2.35;;;1.70;;
6259;SDS011;3163;51.516;4.000;2023-06-26T03:49:40;1.90;;;1.58;;
6259;SDS011;3163;51.516;4.000;2023-06-26T03:52:06;4.25;;;2.00;;
6259;SDS011;3163;51.516;4.000;2023-06-26T03:54:32;4.18;;;1.85;;
6259;SDS011;3163;51.516;4.000;2023-06-26T03:56:58;3.75;;;1.83;;
6259;SDS011;3163;51.516;4.000;2023-06-26T03:59:24;3.33;;;1.98;;
6259;SDS011;3163;51.516;4.000;2023-06-26T04:01:50;7.95;;;2.03;;
6259;SDS011;3163;51.516;4.000;2023-06-26T04:04:17;3.83;;;1.80;;
6259;SDS011;3163;51.516;4.000;2023-06-26T04:06:43;3.58;;;1.65;;
6259;SDS011;3163;51.516;4.000;2023-06-26T04:09:09;3.33;;;1.58;;
6259;SDS011;3163;51.516;4.000;2023-06-26T04:11:35;4.55;;;1.92;;
6259;SDS011;3163;51.516;4.000;2023-06-26T04:14:01;5.75;;;2.00;;
6259;SDS011;3163;51.516;4.000;2023-06-26T04:16:28;4.07;;;1.80;;
6259;SDS011;3163;51.516;4.000;2023-06-26T04:18:54;1.85;;;1.30;;
6259;SDS011;3163;51.516;4.000;2023-06-26T04:21:21;2.72;;;1.20;;
6259;SDS011;3163;51.516;4.000;2023-06-26T04:23:49;3.50;;;1.92;;
6259;SDS011;3163;51.516;4.000;2023-06-26T04:26:16;3.95;;;1.77;;
6259;SDS011;3163;51.516;4.000;2023-06-26T04:28:42;3.42;;;1.20;;
6259;SDS011;3163;51.516;4.000;2023-06-26T04:31:08;2.75;;;1.63;;
6259;SDS011;3163;51.516;4.000;2023-06-26T04:33:35;2.47;;;1.63;;
6259;SDS011;3163;51.516;4.000;2023-06-26T04:36:01;3.70;;;1.60;;
6259;SDS011;3163;51.516;4.000;2023-06-26T04:38:28;3.35;;;1.30;;
6259;SDS011;3163;51.516;4.000;2023-06-26T04:40:54;3.30;;;1.45;;
6259;SDS011;3163;51.516;4.000;2023-06-26T04:43:20;2.83;;;1.50;;
6259;SDS011;3163;51.516;4.000;2023-06-26T04:45:46;1.80;;;1.17;;
6259;SDS011;3163;51.516;4.000;2023-06-26T04:48:13;1.50;;;1.25;;
6259;SDS011;3163;51.516;4.000;2023-06-26T04:50:39;2.72;;;1.45;;
6259;SDS011;3163;51.516;4.000;2023-06-26T04:53:05;3.08;;;1.60;;
6259;SDS011;3163;51.516;4.000;2023-06-26T04:55:31;1.23;;;1.15;;
6259;SDS011;3163;51.516;4.000;2023-06-26T04:57:57;3.78;;;1.30;;
6259;SDS011;3163;51.516;4.000;2023-06-26T05:00:23;2.08;;;1.15;;
6259;SDS011;3163;51.516;4.000;2023-06-26T05:02:50;2.50;;;1.23;;
6259;SDS011;3163;51.516;4.000;2023-06-26T05:05:25;1.23;;;0.75;;
6259;SDS011;3163;51.516;4.000;2023-06-26T05:07:52;2.83;;;1.10;;
6259;SDS011;3163;51.516;4.000;2023-06-26T05:10:18;2.45;;;1.15;;
6259;SDS011;3163;51.516;4.000;2023-06-26T05:12:44;1.60;;;1.20;;
6259;SDS011;3163;51.516;4.000;2023-06-26T05:15:10;4.60;;;1.60;;
6259;SDS011;3163;51.516;4.000;2023-06-26T05:17:36;1.95;;;1.38;;
6259;SDS011;3163;51.516;4.000;2023-06-26T05:20:02;2.17;;;1.25;;
6259;SDS011;3163;51.516;4.000;2023-06-26T05:22:32;1.67;;;0.90;;
6259;SDS011;3163;51.516;4.000;2023-06-26T05:25:00;1.65;;;1.20;;
6259;SDS011;3163;51.516;4.000;2023-06-26T05:27:27;2.88;;;1.40;;
6259;SDS011;3163;51.516;4.000;2023-06-26T05:29:53;3.47;;;1.17;;
6259;SDS011;3163;51.516;4.000;2023-06-26T05:32:20;1.52;;;1.20;;
6259;SDS011;3163;51.516;4.000;2023-06-26T05:34:49;2.30;;;0.98;;
6259;SDS011;3163;51.516;4.000;2023-06-26T05:37:20;1.67;;;0.80;;
6259;SDS011;3163;51.516;4.000;2023-06-26T05:39:46;1.65;;;1.20;;
6259;SDS011;3163;51.516;4.000;2023-06-26T05:42:13;1.40;;;0.90;;
6259;SDS011;3163;51.516;4.000;2023-06-26T05:44:39;1.85;;;1.08;;
6259;SDS011;3163;51.516;4.000;2023-06-26T05:47:05;0.90;;;0.90;;
6259;SDS011;3163;51.516;4.000;2023-06-26T05:49:31;1.95;;;0.95;;
6259;SDS011;3163;51.516;4.000;2023-06-26T05:51:57;3.78;;;1.08;;
6259;SDS011;3163;51.516;4.000;2023-06-26T05:54:23;1.38;;;0.90;;
6259;SDS011;3163;51.516;4.000;2023-06-26T05:56:51;1.10;;;0.80;;
6259;SDS011;3163;51.516;4.000;2023-06-26T05:59:20;1.05;;;0.80;;
6259;SDS011;3163;51.516;4.000;2023-06-26T06:01:46;0.90;;;0.90;;
6259;SDS011;3163;51.516;4.000;2023-06-26T06:04:12;0.68;;;0.68;;
6259;SDS011;3163;51.516;4.000;2023-06-26T06:06:38;0.73;;;0.70;;
6259;SDS011;3163;51.516;4.000;2023-06-26T06:09:04;1.10;;;0.90;;
6259;SDS011;3163;51.516;4.000;2023-06-26T06:11:30;2.53;;;1.05;;
6259;SDS011;3163;51.516;4.000;2023-06-26T06:13:56;2.75;;;0.73;;
6259;SDS011;3163;51.516;4.000;2023-06-26T06:16:23;1.63;;;0.88;;
6259;SDS011;3163;51.516;4.000;2023-06-26T06:18:50;2.25;;;1.13;;
6259;SDS011;3163;51.516;4.000;2023-06-26T06:21:16;1.73;;;1.00;;
6259;SDS011;3163;51.516;4.000;2023-06-26T06:23:42;1.13;;;0.65;;
6259;SDS011;3163;51.516;4.000;2023-06-26T06:26:08;2.15;;;0.80;;
6259;SDS011;3163;51.516;4.000;2023-06-26T06:28:34;0.77;;;0.50;;
6259;SDS011;3163;51.516;4.000;2023-06-26T06:31:00;2.30;;;0.75;;
6259;SDS011;3163;51.516;4.000;2023-06-26T06:33:26;1.08;;;0.63;;
6259;SDS011;3163;51.516;4.000;2023-06-26T06:35:52;0.65;;;0.60;;
6259;SDS011;3163;51.516;4.000;2023-06-26T06:38:18;1.60;;;0.90;;
6259;SDS011;3163;51.516;4.000;2023-06-26T06:40:44;0.77;;;0.77;;
6259;SDS011;3163;51.516;4.000;2023-06-26T06:43:10;2.15;;;0.80;;
6259;SDS011;3163;51.516;4.000;2023-06-26T06:45:36;1.92;;;0.75;;
6259;SDS011;3163;51.516;4.000;2023-06-26T06:48:03;4.30;;;1.10;;
6259;SDS011;3163;51.516;4.000;2023-06-26T06:50:29;1.95;;;0.70;;
6259;SDS011;3163;51.516;4.000;2023-06-26T06:52:55;1.35;;;0.65;;
6259;SDS011;3163;51.516;4.000;2023-06-26T06:55:21;2.50;;;0.77;;
6259;SDS011;3163;51.516;4.000;2023-06-26T06:57:48;0.75;;;0.55;;
6259;SDS011;3163;51.516;4.000;2023-06-26T07:00:15;1.08;;;0.80;;
6259;SDS011;3163;51.516;4.000;2023-06-26T07:02:42;2.35;;;0.80;;
6259;SDS011;3163;51.516;4.000;2023-06-26T07:05:09;0.60;;;0.60;;
6259;SDS011;3163;51.516;4.000;2023-06-26T07:07:35;2.25;;;0.60;;
6259;SDS011;3163;51.516;4.000;2023-06-26T07:10:03;1.23;;;0.80;;
6259;SDS011;3163;51.516;4.000;2023-06-26T07:12:29;0.95;;;0.68;;
6259;SDS011;3163;51.516;4.000;2023-06-26T07:14:56;1.33;;;0.50;;
6259;SDS011;3163;51.516;4.000;2023-06-26T07:17:22;0.98;;;0.63;;
6259;SDS011;3163;51.516;4.000;2023-06-26T07:19:49;1.10;;;0.60;;
6259;SDS011;3163;51.516;4.000;2023-06-26T07:22:15;1.25;;;0.88;;
6259;SDS011;3163;51.516;4.000;2023-06-26T07:24:41;1.17;;;0.40;;
6259;SDS011;3163;51.516;4.000;2023-06-26T07:27:07;0.68;;;0.63;;
6259;SDS011;3163;51.516;4.000;2023-06-26T07:29:33;0.70;;;0.60;;
6259;SDS011;3163;51.516;4.000;2023-06-26T07:31:59;1.77;;;0.70;;
6259;SDS011;3163;51.516;4.000;2023-06-26T07:34:25;1.25;;;0.65;;
6259;SDS011;3163;51.516;4.000;2023-06-26T07:36:51;1.65;;;0.63;;
6259;SDS011;3163;51.516;4.000;2023-06-26T07:39:17;1.90;;;0.70;;
6259;SDS011;3163;51.516;4.000;2023-06-26T07:41:43;1.27;;;0.40;;
6259;SDS011;3163;51.516;4.000;2023-06-26T07:44:09;3.08;;;0.77;;
6259;SDS011;3163;51.516;4.000;2023-06-26T07:46:35;3.50;;;0.47;;
6259;SDS011;3163;51.516;4.000;2023-06-26T07:49:01;0.50;;;0.50;;
6259;SDS011;3163;51.516;4.000;2023-06-26T07:51:27;3.03;;;0.50;;
6259;SDS011;3163;51.516;4.000;2023-06-26T07:53:53;1.05;;;0.50;;
6259;SDS011;3163;51.516;4.000;2023-06-26T07:56:19;0.50;;;0.50;;
6259;SDS011;3163;51.516;4.000;2023-06-26T07:58:45;1.65;;;0.50;;
6259;SDS011;3163;51.516;4.000;2023-06-26T08:01:12;1.05;;;0.50;;
6259;SDS011;3163;51.516;4.000;2023-06-26T08:03:38;2.20;;;0.60;;
6259;SDS011;3163;51.516;4.000;2023-06-26T08:06:05;1.52;;;0.70;;
6259;SDS011;3163;51.516;4.000;2023-06-26T08:08:30;1.08;;;0.50;;
6259;SDS011;3163;51.516;4.000;2023-06-26T08:10:57;0.75;;;0.50;;
6259;SDS011;3163;51.516;4.000;2023-06-26T08:13:23;0.50;;;0.50;;
6259;SDS011;3163;51.516;4.000;2023-06-26T08:15:49;0.55;;;0.50;;
6259;SDS011;3163;51.516;4.000;2023-06-26T08:18:14;1.10;;;0.50;;
6259;SDS011;3163;51.516;4.000;2023-06-26T08:20:40;1.02;;;0.70;;
6259;SDS011;3163;51.516;4.000;2023-06-26T08:23:06;0.80;;;0.80;;
6259;SDS011;3163;51.516;4.000;2023-06-26T08:25:33;1.00;;;0.45;;
6259;SDS011;3163;51.516;4.000;2023-06-26T08:27:59;2.47;;;0.60;;
6259;SDS011;3163;51.516;4.000;2023-06-26T08:30:25;1.15;;;0.57;;
6259;SDS011;3163;51.516;4.000;2023-06-26T08:32:53;0.88;;;0.65;;
6259;SDS011;3163;51.516;4.000;2023-06-26T08:35:19;0.90;;;0.60;;
6259;SDS011;3163;51.516;4.000;2023-06-26T08:37:45;0.77;;;0.60;;
6259;SDS011;3163;51.516;4.000;2023-06-26T08:40:12;0.50;;;0.50;;
6259;SDS011;3163;51.516;4.000;2023-06-26T08:42:38;1.23;;;0.65;;
6259;SDS011;3163;51.516;4.000;2023-06-26T08:45:04;1.05;;;0.57;;
6259;SDS011;3163;51.516;4.000;2023-06-26T08:47:30;1.08;;;0.70;;
6259;SDS011;3163;51.516;4.000;2023-06-26T08:52:23;2.75;;;0.70;;
6259;SDS011;3163;51.516;4.000;2023-06-26T08:54:52;1.05;;;0.63;;
6259;SDS011;3163;51.516;4.000;2023-06-26T08:57:21;4.60;;;0.70;;
6259;SDS011;3163;51.516;4.000;2023-06-26T08:59:48;2.47;;;0.80;;
6259;SDS011;3163;51.516;4.000;2023-06-26T09:02:14;3.50;;;0.70;;
6259;SDS011;3163;51.516;4.000;2023-06-26T09:04:40;1.90;;;0.73;;
6259;SDS011;3163;51.516;4.000;2023-06-26T09:07:07;3.03;;;0.75;;
6259;SDS011;3163;51.516;4.000;2023-06-26T09:09:33;0.98;;;0.73;;
6259;SDS011;3163;51.516;4.000;2023-06-26T09:12:00;2.10;;;0.93;;
6259;SDS011;3163;51.516;4.000;2023-06-26T09:14:27;2.30;;;0.60;;
6259;SDS011;3163;51.516;4.000;2023-06-26T09:16:53;1.60;;;0.80;;
6259;SDS011;3163;51.516;4.000;2023-06-26T09:19:19;3.30;;;1.00;;
6259;SDS011;3163;51.516;4.000;2023-06-26T09:21:45;3.00;;;0.88;;
6259;SDS011;3163;51.516;4.000;2023-06-26T09:24:14;2.47;;;0.80;;
6259;SDS011;3163;51.516;4.000;2023-06-26T09:26:40;1.67;;;0.65;;
6259;SDS011;3163;51.516;4.000;2023-06-26T09:29:06;1.25;;;0.73;;
6259;SDS011;3163;51.516;4.000;2023-06-26T09:31:33;2.08;;;0.70;;
6259;SDS011;3163;51.516;4.000;2023-06-26T09:34:01;2.05;;;0.70;;
6259;SDS011;3163;51.516;4.000;2023-06-26T09:36:30;1.02;;;0.80;;
6259;SDS011;3163;51.516;4.000;2023-06-26T09:39:01;1.02;;;0.60;;
6259;SDS011;3163;51.516;4.000;2023-06-26T09:41:27;0.73;;;0.73;;
6259;SDS011;3163;51.516;4.000;2023-06-26T09:43:53;4.00;;;0.68;;
6259;SDS011;3163;51.516;4.000;2023-06-26T09:46:26;0.63;;;0.60;;
6259;SDS011;3163;51.516;4.000;2023-06-26T09:49:04;0.70;;;0.70;;
6259;SDS011;3163;51.516;4.000;2023-06-26T09:51:34;0.95;;;0.88;;
6259;SDS011;3163;51.516;4.000;2023-06-26T09:54:00;1.92;;;0.60;;
6259;SDS011;3163;51.516;4.000;2023-06-26T09:56:27;1.23;;;0.55;;
6259;SDS011;3163;51.516;4.000;2023-06-26T09:58:58;1.55;;;0.47;;
6259;SDS011;3163;51.516;4.000;2023-06-26T10:01:24;0.82;;;0.60;;
6259;SDS011;3163;51.516;4.000;2023-06-26T10:03:50;0.88;;;0.40;;
6259;SDS011;3163;51.516;4.000;2023-06-26T10:06:22;0.57;;;0.57;;
6259;SDS011;3163;51.516;4.000;2023-06-26T10:08:50;1.50;;;0.65;;
6259;SDS011;3163;51.516;4.000;2023-06-26T10:11:18;0.90;;;0.43;;
6259;SDS011;3163;51.516;4.000;2023-06-26T10:13:45;0.65;;;0.57;;
6259;SDS011;3163;51.516;4.000;2023-06-26T10:16:11;1.35;;;0.60;;
6259;SDS011;3163;51.516;4.000;2023-06-26T10:18:38;0.50;;;0.50;;
6259;SDS011;3163;51.516;4.000;2023-06-26T10:21:04;2.20;;;0.52;;
6259;SDS011;3163;51.516;4.000;2023-06-26T10:23:31;1.45;;;0.63;;
6259;SDS011;3163;51.516;4.000;2023-06-26T10:25:58;0.82;;;0.77;;
6259;SDS011;3163;51.516;4.000;2023-06-26T10:28:24;1.98;;;0.70;;
6259;SDS011;3163;51.516;4.000;2023-06-26T10:30:51;0.60;;;0.60;;
6259;SDS011;3163;51.516;4.000;2023-06-26T10:33:18;1.75;;;0.68;;
6259;SDS011;3163;51.516;4.000;2023-06-26T10:35:44;4.22;;;0.93;;
6259;SDS011;3163;51.516;4.000;2023-06-26T10:38:10;0.50;;;0.50;;
6259;SDS011;3163;51.516;4.000;2023-06-26T10:40:43;1.75;;;0.80;;
6259;SDS011;3163;51.516;4.000;2023-06-26T10:43:11;0.95;;;0.65;;
6259;SDS011;3163;51.516;4.000;2023-06-26T10:45:43;1.92;;;0.70;;
6259;SDS011;3163;51.516;4.000;2023-06-26T10:48:09;1.38;;;0.57;;
6259;SDS011;3163;51.516;4.000;2023-06-26T10:50:35;0.68;;;0.60;;
6259;SDS011;3163;51.516;4.000;2023-06-26T10:55:34;1.10;;;0.63;;
6259;SDS011;3163;51.516;4.000;2023-06-26T10:58:01;1.23;;;0.70;;
6259;SDS011;3163;51.516;4.000;2023-06-26T11:00:30;0.50;;;0.50;;
6259;SDS011;3163;51.516;4.000;2023-06-26T11:02:57;1.90;;;0.75;;
6259;SDS011;3163;51.516;4.000;2023-06-26T11:05:28;1.08;;;0.60;;
6259;SDS011;3163;51.516;4.000;2023-06-26T11:08:05;1.23;;;0.60;;
6259;SDS011;3163;51.516;4.000;2023-06-26T11:13:17;0.77;;;0.57;;
6259;SDS011;3163;51.516;4.000;2023-06-26T11:15:44;0.52;;;0.30;;
6259;SDS011;3163;51.516;4.000;2023-06-26T11:18:10;0.73;;;0.70;;
6259;SDS011;3163;51.516;4.000;2023-06-26T11:20:36;3.13;;;0.90;;
6259;SDS011;3163;51.516;4.000;2023-06-26T11:23:03;2.83;;;0.60;;
6259;SDS011;3163;51.516;4.000;2023-06-26T11:25:33;1.52;;;0.63;;
6259;SDS011;3163;51.516;4.000;2023-06-26T11:28:00;0.68;;;0.68;;
6259;SDS011;3163;51.516;4.000;2023-06-26T11:30:27;1.63;;;0.73;;
6259;SDS011;3163;51.516;4.000;2023-06-26T11:33:01;1.05;;;0.60;;
6259;SDS011;3163;51.516;4.000;2023-06-26T11:35:27;0.50;;;0.50;;
6259;SDS011;3163;51.516;4.000;2023-06-26T11:37:57;2.60;;;0.73;;
6259;SDS011;3163;51.516;4.000;2023-06-26T11:40:25;0.80;;;0.80;;
6259;SDS011;3163;51.516;4.000;2023-06-26T11:42:57;0.82;;;0.55;;
6259;SDS011;3163;51.516;4.000;2023-06-26T11:45:23;0.85;;;0.85;;
6259;SDS011;3163;51.516;4.000;2023-06-26T11:47:49;0.40;;;0.40;;
6259;SDS011;3163;51.516;4.000;2023-06-26T11:50:15;0.73;;;0.60;;
6259;SDS011;3163;51.516;4.000;2023-06-26T11:52:42;0.65;;;0.60;;
6259;SDS011;3163;51.516;4.000;2023-06-26T11:55:08;0.73;;;0.52;;
6259;SDS011;3163;51.516;4.000;2023-06-26T11:57:35;1.30;;;0.60;;
6259;SDS011;3163;51.516;4.000;2023-06-26T12:00:14;0.63;;;0.57;;
6259;SDS011;3163;51.516;4.000;2023-06-26T12:02:41;2.35;;;0.88;;
6259;SDS011;3163;51.516;4.000;2023-06-26T12:05:07;0.75;;;0.65;;
6259;SDS011;3163;51.516;4.000;2023-06-26T12:07:33;0.60;;;0.50;;
6259;SDS011;3163;51.516;4.000;2023-06-26T12:10:01;1.17;;;0.90;;
6259;SDS011;3163;51.516;4.000;2023-06-26T12:12:28;4.68;;;1.02;;
6259;SDS011;3163;51.516;4.000;2023-06-26T12:14:54;0.93;;;0.57;;
6259;SDS011;3163;51.516;4.000;2023-06-26T12:17:22;1.05;;;0.70;;
6259;SDS011;3163;51.516;4.000;2023-06-26T12:19:50;1.13;;;0.60;;
6259;SDS011;3163;51.516;4.000;2023-06-26T12:22:16;1.05;;;0.63;;
6259;SDS011;3163;51.516;4.000;2023-06-26T12:24:43;1.02;;;0.90;;
6259;SDS011;3163;51.516;4.000;2023-06-26T12:27:09;1.05;;;0.65;;
6259;SDS011;3163;51.516;4.000;2023-06-26T12:29:36;0.85;;;0.68;;
6259;SDS011;3163;51.516;4.000;2023-06-26T12:32:02;1.52;;;0.63;;
6259;SDS011;3163;51.516;4.000;2023-06-26T12:34:31;1.83;;;0.50;;
6259;SDS011;3163;51.516;4.000;2023-06-26T12:37:01;1.25;;;0.60;;
6259;SDS011;3163;51.516;4.000;2023-06-26T12:39:28;0.90;;;0.70;;
6259;SDS011;3163;51.516;4.000;2023-06-26T12:41:55;0.75;;;0.52;;
6259;SDS011;3163;51.516;4.000;2023-06-26T12:46:53;1.33;;;0.70;;
6259;SDS011;3163;51.516;4.000;2023-06-26T12:49:19;0.82;;;0.65;;
6259;SDS011;3163;51.516;4.000;2023-06-26T12:51:45;0.75;;;0.70;;
6259;SDS011;3163;51.516;4.000;2023-06-26T12:54:11;0.50;;;0.50;;
6259;SDS011;3163;51.516;4.000;2023-06-26T12:56:37;1.35;;;0.70;;
6259;SDS011;3163;51.516;4.000;2023-06-26T12:59:03;2.10;;;0.63;;
6259;SDS011;3163;51.516;4.000;2023-06-26T13:01:29;1.63;;;0.70;;
6259;SDS011;3163;51.516;4.000;2023-06-26T13:03:55;0.80;;;0.70;;
6259;SDS011;3163;51.516;4.000;2023-06-26T13:06:21;0.57;;;0.50;;
6259;SDS011;3163;51.516;4.000;2023-06-26T13:08:47;1.13;;;0.68;;
6259;SDS011;3163;51.516;4.000;2023-06-26T13:11:13;1.92;;;0.70;;
6259;SDS011;3163;51.516;4.000;2023-06-26T13:13:41;0.70;;;0.50;;
6259;SDS011;3163;51.516;4.000;2023-06-26T13:16:08;1.13;;;0.50;;
6259;SDS011;3163;51.516;4.000;2023-06-26T13:18:33;0.88;;;0.50;;
6259;SDS011;3163;51.516;4.000;2023-06-26T13:20:59;0.73;;;0.65;;
6259;SDS011;3163;51.516;4.000;2023-06-26T13:23:25;1.83;;;0.68;;
6259;SDS011;3163;51.516;4.000;2023-06-26T13:25:51;1.27;;;0.55;;
6259;SDS011;3163;51.516;4.000;2023-06-26T13:28:18;0.85;;;0.77;;
6259;SDS011;3163;51.516;4.000;2023-06-26T13:30:44;1.63;;;0.60;;
6259;SDS011;3163;51.516;4.000;2023-06-26T13:33:10;2.53;;;0.70;;
6259;SDS011;3163;51.516;4.000;2023-06-26T13:35:36;3.13;;;0.80;;
6259;SDS011;3163;51.516;4.000;2023-06-26T13:38:02;0.50;;;0.50;;
6259;SDS011;3163;51.516;4.000;2023-06-26T13:40:28;1.95;;;0.60;;
6259;SDS011;3163;51.516;4.000;2023-06-26T13:42:54;1.35;;;1.15;;
6259;SDS011;3163;51.516;4.000;2023-06-26T13:45:20;0.77;;;0.65;;
6259;SDS011;3163;51.516;4.000;2023-06-26T13:47:46;0.55;;;0.55;;
6259;SDS011;3163;51.516;4.000;2023-06-26T13:50:12;0.40;;;0.40;;
6259;SDS011;3163;51.516;4.000;2023-06-26T13:52:38;0.63;;;0.63;;
6259;SDS011;3163;51.516;4.000;2023-06-26T13:55:04;0.82;;;0.60;;
6259;SDS011;3163;51.516;4.000;2023-06-26T13:57:30;0.80;;;0.43;;
6259;SDS011;3163;51.516;4.000;2023-06-26T13:59:57;1.77;;;0.60;;
6259;SDS011;3163;51.516;4.000;2023-06-26T14:02:23;0.55;;;0.55;;
6259;SDS011;3163;51.516;4.000;2023-06-26T14:04:49;0.63;;;0.63;;
6259;SDS011;3163;51.516;4.000;2023-06-26T14:07:15;0.82;;;0.50;;
6259;SDS011;3163;51.516;4.000;2023-06-26T14:09:41;0.50;;;0.50;;
6259;SDS011;3163;51.516;4.000;2023-06-26T14:12:07;0.60;;;0.60;;
6259;SDS011;3163;51.516;4.000;2023-06-26T14:14:33;1.08;;;0.57;;
6259;SDS011;3163;51.516;4.000;2023-06-26T14:16:59;1.27;;;0.57;;
6259;SDS011;3163;51.516;4.000;2023-06-26T14:19:25;0.50;;;0.50;;
6259;SDS011;3163;51.516;4.000;2023-06-26T14:21:51;0.98;;;0.60;;
6259;SDS011;3163;51.516;4.000;2023-06-26T14:24:17;1.90;;;0.45;;
6259;SDS011;3163;51.516;4.000;2023-06-26T14:26:43;1.88;;;0.60;;
6259;SDS011;3163;51.516;4.000;2023-06-26T14:29:09;0.50;;;0.50;;
6259;SDS011;3163;51.516;4.000;2023-06-26T14:31:35;0.60;;;0.55;;
6259;SDS011;3163;51.516;4.000;2023-06-26T14:34:01;0.75;;;0.55;;
6259;SDS011;3163;51.516;4.000;2023-06-26T14:36:28;0.85;;;0.68;;
6259;SDS011;3163;51.516;4.000;2023-06-26T14:38:56;3.30;;;0.65;;
6259;SDS011;3163;51.516;4.000;2023-06-26T14:41:24;2.38;;;0.80;;
6259;SDS011;3163;51.516;4.000;2023-06-26T14:43:50;0.40;;;0.40;;
6259;SDS011;3163;51.516;4.000;2023-06-26T14:46:17;0.43;;;0.40;;
6259;SDS011;3163;51.516;4.000;2023-06-26T14:48:44;2.00;;;0.50;;
6259;SDS011;3163;51.516;4.000;2023-06-26T14:51:10;1.00;;;0.60;;
6259;SDS011;3163;51.516;4.000;2023-06-26T14:53:36;2.75;;;0.68;;
6259;SDS011;3163;51.516;4.000;2023-06-26T14:56:02;1.55;;;0.70;;
6259;SDS011;3163;51.516;4.000;2023-06-26T14:58:30;0.73;;;0.40;;
6259;SDS011;3163;51.516;4.000;2023-06-26T15:00:56;1.90;;;0.70;;
6259;SDS011;3163;51.516;4.000;2023-06-26T15:03:22;0.65;;;0.63;;
6259;SDS011;3163;51.516;4.000;2023-06-26T15:05:48;0.60;;;0.60;;
6259;SDS011;3163;51.516;4.000;2023-06-26T15:08:14;1.42;;;0.65;;
6259;SDS011;3163;51.516;4.000;2023-06-26T15:10:40;0.40;;;0.40;;
6259;SDS011;3163;51.516;4.000;2023-06-26T15:13:06;1.02;;;0.68;;
6259;SDS011;3163;51.516;4.000;2023-06-26T15:15:33;1.15;;;0.47;;
6259;SDS011;3163;51.516;4.000;2023-06-26T15:17:59;0.80;;;0.43;;
6259;SDS011;3163;51.516;4.000;2023-06-26T15:20:25;0.60;;;0.60;;
6259;SDS011;3163;51.516;4.000;2023-06-26T15:22:51;0.85;;;0.65;;
6259;SDS011;3163;51.516;4.000;2023-06-26T15:25:17;1.95;;;0.70;;
6259;SDS011;3163;51.516;4.000;2023-06-26T15:27:43;0.50;;;0.50;;
6259;SDS011;3163;51.516;4.000;2023-06-26T15:30:09;1.83;;;0.60;;
6259;SDS011;3163;51.516;4.000;2023-06-26T15:32:35;0.65;;;0.40;;